Ana Sayfa
METAR-TAF:

METAR-TAF

Havaalanları :

Tucson, Arizona, Amerika Birleşik Devletleri

Enlem: 32-24-34N, Boylam: 111-13-06W, yükseklik: 619 m

Güncel hava durumu gözlemi

Rapor saat 19:55 UTC de 10 dakika önce yapıldı.
Rüzgar batı/güneybatıdan 7 kt
Sıcaklık 37°C
Nem 13%
Basınç 1011 hPa
Görüş mesafesi: 16.1 km
Açık gökyüzü

METAR: KAVQ 311955Z AUTO 25007KT 10SM CLR 37/04 A2984 RMK AO2 T03720043

Saat: 13:05 (20:05 UTC)


TAF: eksik

4.000'den fazla havaalanı için hava durumu gözlemleri ve tahminleri (METAR ve TAF raporları).

Kullanılabilir istasyonlar harita üzerinde sarı ve kırmızı noktalarla gösterilir.

İstasyonun adını görmek için fareyi noktanın üzerinde gezdirin.

Sonrasında hava gözlem ve tahminlerini görmek için tıklayın.

Haritayı değiştirmek için: yaklaştırmak için siyah artı işaretli yeşil düğmeye ve uzaklaştırmak için de eksi işaretli düğmeye hızla tıklayın; bitişik haritalar için yeşil okları kullanın.


METAR-TAF: